createdAt,value
2023-02-23T00:18:01.740Z,11.50
2023-02-23T00:22:14.476Z,11.60
2023-02-23T00:26:36.610Z,10.50
2023-02-23T00:31:05.417Z,10.70
2023-02-23T00:35:37.443Z,11.10
2023-02-23T00:56:56.833Z,11.90
2023-02-23T01:01:26.284Z,11.90
2023-02-23T01:05:55.525Z,11.30
2023-02-23T01:10:23.461Z,11.80
2023-02-23T01:14:52.974Z,11.80
2023-02-23T01:27:39.158Z,12.50
2023-02-23T01:32:05.888Z,11.20
2023-02-23T01:36:25.969Z,11.80
2023-02-23T01:40:56.513Z,12.60
2023-02-23T02:06:02.271Z,13.20
2023-02-23T02:10:31.852Z,12.20
2023-02-23T06:33:02.255Z,14.10
2023-02-23T06:36:34.436Z,12.90
2023-02-23T06:40:15.047Z,13.00
2023-02-23T06:44:33.216Z,14.20
2023-02-23T06:48:44.279Z,13.80
2023-02-23T06:53:13.559Z,14.80
2023-02-23T06:57:32.962Z,14.70
2023-02-23T07:02:01.220Z,14.90
2023-02-23T07:06:06.033Z,15.10
2023-02-23T07:10:29.020Z,15.10
2023-02-23T07:14:59.268Z,16.90
2023-02-23T08:01:33.299Z,17.60
2023-02-23T08:05:37.607Z,15.60
2023-02-23T08:10:03.512Z,16.30
2023-02-23T08:14:05.133Z,16.50
2023-02-23T08:18:34.253Z,17.20
2023-02-23T08:22:58.526Z,15.50
2023-02-23T08:26:50.372Z,15.30
2023-02-23T08:31:14.019Z,15.20
2023-02-23T08:35:08.176Z,16.00
2023-02-23T09:16:27.002Z,19.20
2023-02-23T09:20:06.497Z,19.90
2023-02-23T09:23:07.159Z,18.40
2023-02-23T09:26:06.582Z,19.20
2023-02-23T09:28:41.695Z,19.70
2023-02-23T09:31:48.230Z,20.10
2023-02-23T09:35:12.623Z,18.70
2023-02-23T09:37:45.825Z,19.10
2023-02-23T09:41:39.320Z,19.60
2023-02-23T09:44:55.301Z,19.20
2023-02-23T09:48:27.155Z,20.00
2023-02-23T09:51:09.460Z,19.90
2023-02-23T09:54:00.475Z,18.10
2023-02-23T09:57:02.851Z,20.00
2023-02-23T10:00:04.353Z,19.20
2023-02-23T10:06:43.835Z,20.10
2023-02-23T10:10:59.305Z,19.50
2023-02-23T10:14:31.119Z,20.50
2023-02-23T10:17:57.601Z,19.90
2023-02-23T10:21:29.365Z,19.70
2023-02-23T10:25:16.835Z,18.60
2023-02-23T10:29:28.690Z,19.10
2023-02-23T10:34:07.783Z,21.00
2023-02-23T10:59:28.815Z,19.90
2023-02-23T11:03:06.444Z,19.30
2023-02-23T11:11:35.795Z,18.60
2023-02-23T11:16:01.230Z,19.50
2023-02-23T11:20:21.347Z,20.40
2023-02-23T11:24:04.315Z,20.20
2023-02-23T11:28:03.376Z,20.40
2023-02-23T11:32:29.139Z,22.30
2023-02-23T11:36:33.573Z,20.70
2023-02-23T11:40:53.268Z,19.30
2023-02-23T12:44:45.202Z,19.70
2023-02-23T12:49:07.568Z,18.90
2023-02-23T14:22:38.460Z,21.40
2023-02-23T14:27:04.347Z,20.00
2023-02-23T14:31:51.821Z,20.60
2023-02-23T14:49:14.605Z,23.30
2023-02-23T14:53:42.514Z,21.40
2023-02-23T14:58:17.413Z,21.60
2023-02-23T15:02:20.895Z,20.90
2023-02-23T15:05:49.730Z,21.30
2023-02-23T15:09:47.355Z,22.10
2023-02-23T15:14:27.857Z,20.70
2023-02-23T15:18:14.671Z,21.30
2023-02-23T15:22:44.904Z,21.50
2023-02-23T15:26:56.204Z,20.60
2023-02-23T15:31:09.359Z,20.90
2023-02-23T15:35:38.789Z,22.20
2023-02-23T15:43:10.944Z,21.20
2023-02-23T15:47:14.784Z,20.90
2023-02-23T15:51:45.028Z,20.60
2023-02-23T16:00:21.106Z,20.10
2023-02-23T16:04:41.726Z,21.60
2023-02-23T16:09:10.339Z,21.50
2023-02-23T16:13:33.748Z,24.10
2023-02-23T16:29:38.191Z,23.30
2023-02-23T16:33:55.934Z,22.00
2023-02-23T16:38:43.358Z,24.40
2023-02-23T16:43:13.928Z,24.10
2023-02-23T16:51:05.552Z,23.30
2023-02-23T16:55:27.504Z,26.10
2023-02-23T17:29:59.979Z,34.30
2023-02-23T17:34:21.551Z,32.60
2023-02-23T17:38:39.418Z,34.70
2023-02-23T17:43:11.773Z,33.40
2023-02-23T17:47:35.653Z,28.20
2023-02-23T17:52:03.707Z,28.80
2023-02-23T18:01:21.639Z,30.40
2023-02-23T18:09:40.442Z,26.30
2023-02-23T18:14:12.956Z,27.60
2023-02-23T18:44:22.449Z,28.20
2023-02-23T18:48:31.985Z,27.90
2023-02-23T18:53:02.229Z,29.10
2023-02-23T18:57:19.483Z,29.50
2023-02-23T19:01:53.437Z,30.70
2023-02-23T19:23:04.846Z,31.50
2023-02-23T19:27:34.448Z,27.50
2023-02-23T19:31:49.587Z,27.80
2023-02-23T19:36:19.388Z,28.30
2023-02-23T19:45:12.384Z,28.00
2023-02-23T19:49:05.386Z,29.90
2023-02-23T21:01:27.838Z,27.60
2023-02-23T21:05:24.526Z,26.80
2023-02-23T21:09:30.780Z,26.10
2023-02-23T21:13:48.872Z,27.10
2023-02-23T21:18:09.755Z,28.20
2023-02-23T21:22:43.613Z,28.70
2023-02-23T21:54:03.018Z,32.40
2023-02-23T21:58:25.682Z,31.00
2023-02-23T22:02:57.336Z,32.00
2023-02-23T22:07:27.769Z,30.40
2023-02-23T22:11:46.828Z,30.80
2023-02-23T22:16:05.750Z,29.90
2023-02-23T22:20:17.900Z,29.10
2023-02-23T22:24:48.657Z,28.30
2023-02-23T23:19:29.832Z,27.10
2023-02-23T23:23:36.836Z,26.70
2023-02-23T23:27:57.637Z,26.60
2023-02-23T23:32:20.326Z,25.40
2023-02-23T23:36:30.556Z,27.60
2023-02-23T23:58:01.330Z,29.80
